createdAt,value
2022-10-14T00:01:49.948Z,98.61
2022-10-14T00:04:16.635Z,98.68
2022-10-14T00:06:44.671Z,98.66
2022-10-14T00:09:11.446Z,98.75
2022-10-14T00:11:41.674Z,98.77
2022-10-14T00:14:16.121Z,98.86
2022-10-14T00:16:44.036Z,98.86
2022-10-14T00:19:10.814Z,98.97
2022-10-14T00:21:39.526Z,99.03
2022-10-14T00:24:07.244Z,98.96
2022-10-14T00:26:37.640Z,98.98
2022-10-14T00:29:07.053Z,99.01
2022-10-14T00:31:34.098Z,99.03
2022-10-14T00:34:01.030Z,99.00
2022-10-14T00:36:28.030Z,98.98
2022-10-14T00:38:54.945Z,98.98
2022-10-14T00:41:31.462Z,98.94
2022-10-14T00:44:04.801Z,98.94
2022-10-14T00:46:37.579Z,98.91
2022-10-14T00:49:14.615Z,98.93
2022-10-14T00:51:44.496Z,98.94
2022-10-14T00:54:15.253Z,98.88
2022-10-14T00:56:44.119Z,98.91
2022-10-14T00:59:11.014Z,98.92
2022-10-14T01:01:37.776Z,98.92
2022-10-14T01:04:04.545Z,98.92
2022-10-14T01:06:42.436Z,98.91
2022-10-14T01:09:08.928Z,98.95
2022-10-14T01:12:23.392Z,98.96
2022-10-14T01:14:46.746Z,99.06
2022-10-14T01:17:36.446Z,99.07
2022-10-14T01:20:06.040Z,99.05
2022-10-14T01:22:56.966Z,99.11
2022-10-14T01:25:34.802Z,99.17
2022-10-14T01:28:24.320Z,99.15
2022-10-14T01:30:58.176Z,99.19
2022-10-14T01:33:28.586Z,99.16
2022-10-14T01:36:08.350Z,99.25
2022-10-14T01:38:38.868Z,99.26
2022-10-14T01:41:15.632Z,99.29
2022-10-14T01:43:45.597Z,99.29
2022-10-14T01:46:13.395Z,99.33
2022-10-14T01:48:48.127Z,99.36
2022-10-14T01:51:21.088Z,99.36
2022-10-14T01:53:54.915Z,99.32
2022-10-14T01:56:22.052Z,99.25
2022-10-14T01:58:49.682Z,99.20
2022-10-14T02:01:16.638Z,99.21
2022-10-14T02:03:45.899Z,99.22
2022-10-14T02:06:42.730Z,99.22
2022-10-14T02:09:20.672Z,99.27
2022-10-14T02:12:09.111Z,99.27
2022-10-14T02:14:50.842Z,99.25
2022-10-14T02:17:20.327Z,99.23
2022-10-14T02:19:46.904Z,99.18
2022-10-14T02:22:25.359Z,99.18
2022-10-14T02:24:56.196Z,99.06
2022-10-14T02:27:26.157Z,99.06
2022-10-14T02:29:55.031Z,98.97
2022-10-14T02:32:24.718Z,98.95
2022-10-14T02:34:54.799Z,98.99
2022-10-14T02:37:22.985Z,98.98
2022-10-14T02:39:59.166Z,99.01
2022-10-14T02:42:27.776Z,99.03
2022-10-14T02:44:56.408Z,99.00
2022-10-14T02:47:25.194Z,99.05
2022-10-14T02:49:52.307Z,98.94
2022-10-14T02:52:20.054Z,98.95
2022-10-14T02:54:47.062Z,98.95
2022-10-14T02:57:15.665Z,98.88
2022-10-14T02:59:42.345Z,98.91
2022-10-14T03:02:09.200Z,98.93
2022-10-14T03:04:36.371Z,98.91
2022-10-14T03:07:03.376Z,98.92
2022-10-14T03:09:29.973Z,98.95
2022-10-14T03:11:56.703Z,98.91
2022-10-14T03:14:23.252Z,98.93
2022-10-14T03:16:49.899Z,98.95
2022-10-14T03:19:16.504Z,98.97
2022-10-14T03:21:43.236Z,98.95
2022-10-14T03:24:09.971Z,98.96
2022-10-14T03:26:36.607Z,98.90
2022-10-14T03:29:03.325Z,98.89
2022-10-14T03:31:29.988Z,98.92
2022-10-14T03:33:56.589Z,98.94
2022-10-14T03:36:23.479Z,98.86
2022-10-14T03:38:50.136Z,98.82
2022-10-14T03:41:16.797Z,98.77
2022-10-14T03:43:43.369Z,98.77
2022-10-14T03:46:10.099Z,98.71
2022-10-14T03:48:36.651Z,98.73
2022-10-14T03:51:03.395Z,98.70
2022-10-14T03:53:29.973Z,98.64
2022-10-14T03:55:56.614Z,98.60
2022-10-14T03:58:23.141Z,98.56
2022-10-14T04:00:49.723Z,98.59
2022-10-14T04:03:16.310Z,98.63
2022-10-14T04:05:42.912Z,98.59
2022-10-14T04:08:09.631Z,98.56
2022-10-14T04:10:36.292Z,98.56
2022-10-14T04:13:03.024Z,98.60
2022-10-14T04:15:29.721Z,98.63
2022-10-14T04:17:56.366Z,98.68
2022-10-14T04:20:23.471Z,98.73
2022-10-14T04:22:50.369Z,98.72
2022-10-14T04:25:17.159Z,98.74
2022-10-14T04:27:43.756Z,98.76
2022-10-14T04:30:10.845Z,98.69
2022-10-14T04:32:37.440Z,98.65
2022-10-14T04:35:05.429Z,98.66
2022-10-14T04:37:32.118Z,98.70
2022-10-14T04:39:58.636Z,98.74
2022-10-14T04:42:25.413Z,98.68
2022-10-14T04:44:52.604Z,98.70
2022-10-14T04:47:19.565Z,98.75
2022-10-14T04:49:46.175Z,98.69
2022-10-14T04:52:12.770Z,98.78
2022-10-14T04:54:39.355Z,98.72
2022-10-14T04:57:06.051Z,98.75
2022-10-14T04:59:32.765Z,98.82
2022-10-14T05:01:59.400Z,98.85
2022-10-14T05:04:26.019Z,98.82
2022-10-14T05:06:52.716Z,98.91
2022-10-14T05:09:19.450Z,98.94
2022-10-14T05:11:46.010Z,99.02
2022-10-14T05:14:12.599Z,98.93
2022-10-14T05:16:39.514Z,98.93
2022-10-14T05:19:06.251Z,98.88
2022-10-14T05:21:32.983Z,98.81
2022-10-14T05:23:59.575Z,98.92
2022-10-14T05:26:26.405Z,99.01
2022-10-14T05:28:53.073Z,98.99
2022-10-14T05:31:19.718Z,98.93
2022-10-14T05:33:46.586Z,98.93
2022-10-14T05:36:13.186Z,98.89
2022-10-14T05:38:39.824Z,98.79
2022-10-14T05:41:06.502Z,98.76
2022-10-14T05:43:33.299Z,98.71
2022-10-14T05:46:00.532Z,98.67
2022-10-14T05:48:27.291Z,98.57
2022-10-14T05:50:54.256Z,98.60
2022-10-14T05:53:20.949Z,98.58
2022-10-14T05:55:47.631Z,98.55
2022-10-14T05:58:14.462Z,98.47
2022-10-14T06:00:41.015Z,98.50
2022-10-14T06:03:08.857Z,98.49
2022-10-14T06:05:36.568Z,98.44
2022-10-14T06:08:03.570Z,98.49
2022-10-14T06:10:30.178Z,98.46
2022-10-14T06:12:57.227Z,98.39
2022-10-14T06:15:23.841Z,98.38
2022-10-14T06:17:50.373Z,98.29
2022-10-14T06:20:17.146Z,98.35
2022-10-14T06:22:43.877Z,98.32
2022-10-14T06:25:10.893Z,98.27
2022-10-14T06:27:37.562Z,98.24
2022-10-14T06:33:50.814Z,98.08
2022-10-14T06:36:17.798Z,98.14
2022-10-14T06:38:44.400Z,98.17
2022-10-14T06:41:12.286Z,98.12
2022-10-14T06:43:38.989Z,98.00
2022-10-14T06:46:05.992Z,98.03
2022-10-14T06:48:32.714Z,98.07
2022-10-14T06:51:00.995Z,98.17
2022-10-14T06:53:28.280Z,98.11
2022-10-14T06:56:06.804Z,98.25
2022-10-14T06:58:36.651Z,98.24
2022-10-14T07:01:05.626Z,98.35
2022-10-14T07:03:36.503Z,98.41
2022-10-14T07:06:04.863Z,98.42
2022-10-14T07:08:31.533Z,98.30
2022-10-14T07:10:58.341Z,98.44
2022-10-14T07:13:24.997Z,98.47
2022-10-14T07:15:53.563Z,98.45
2022-10-14T07:18:20.408Z,98.48
2022-10-14T07:20:47.485Z,98.39
2022-10-14T07:23:14.100Z,98.47
2022-10-14T07:25:40.740Z,98.45
2022-10-14T07:28:07.357Z,98.50
2022-10-14T07:30:34.302Z,98.57
2022-10-14T07:33:01.176Z,98.58
2022-10-14T07:35:28.118Z,98.66
2022-10-14T07:37:55.342Z,98.70
2022-10-14T07:40:21.960Z,98.66
2022-10-14T07:42:48.727Z,98.68
2022-10-14T07:45:17.781Z,98.72
2022-10-14T07:47:47.672Z,98.68
2022-10-14T07:50:14.463Z,98.58
2022-10-14T07:52:41.172Z,98.37
2022-10-14T07:55:08.136Z,98.42
2022-10-14T07:57:34.748Z,98.46
2022-10-14T08:00:01.510Z,98.51
2022-10-14T08:02:29.143Z,98.47
2022-10-14T08:05:04.165Z,98.45
2022-10-14T08:07:40.030Z,98.44
2022-10-14T08:10:07.150Z,98.39
2022-10-14T08:12:33.750Z,98.17
2022-10-14T08:15:00.387Z,98.10
2022-10-14T08:17:27.937Z,97.95
2022-10-14T08:19:54.491Z,97.93
2022-10-14T08:22:21.242Z,97.90
2022-10-14T08:24:50.138Z,97.76
2022-10-14T08:27:16.963Z,97.57
2022-10-14T08:29:43.764Z,97.63
2022-10-14T08:32:10.352Z,97.64
2022-10-14T08:34:36.890Z,97.39
2022-10-14T08:37:03.624Z,97.33
2022-10-14T08:39:30.272Z,97.16
2022-10-14T08:42:08.201Z,97.09
2022-10-14T08:44:47.559Z,96.94
2022-10-14T08:47:23.012Z,96.89
2022-10-14T08:50:07.534Z,96.89
2022-10-14T08:52:39.461Z,96.88
2022-10-14T08:55:27.030Z,96.70
2022-10-14T08:58:03.197Z,96.59
2022-10-14T09:00:33.632Z,96.58
2022-10-14T09:03:10.498Z,96.57
2022-10-14T09:05:39.603Z,96.48
2022-10-14T09:08:08.441Z,96.35
2022-10-14T09:10:39.618Z,96.17
2022-10-14T09:13:18.978Z,96.07
2022-10-14T09:15:50.402Z,95.84
2022-10-14T09:18:32.893Z,95.71
2022-10-14T09:21:01.108Z,95.58
2022-10-14T09:23:28.285Z,95.35
2022-10-14T09:26:19.333Z,95.41
2022-10-14T09:28:48.473Z,95.28
2022-10-14T09:31:15.188Z,95.22
2022-10-14T09:33:43.613Z,95.15
2022-10-14T09:36:19.417Z,95.05
2022-10-14T09:38:54.563Z,95.06
2022-10-14T09:41:28.114Z,94.84
2022-10-14T09:44:33.324Z,94.51
2022-10-14T09:47:03.585Z,94.64
2022-10-14T09:49:44.000Z,94.66
2022-10-14T09:52:25.044Z,94.45
2022-10-14T09:54:57.066Z,94.13
2022-10-14T09:57:25.287Z,93.85
2022-10-14T09:59:57.592Z,93.36
2022-10-14T10:02:42.202Z,93.03
2022-10-14T10:05:25.144Z,92.73
2022-10-14T10:08:14.840Z,92.23
2022-10-14T10:10:42.118Z,92.46
2022-10-14T10:13:22.696Z,92.20
2022-10-14T10:16:00.250Z,92.25
2022-10-14T10:18:26.848Z,92.31
2022-10-14T10:21:06.816Z,92.03
2022-10-14T10:23:35.586Z,92.39
2022-10-14T10:26:17.074Z,91.68
2022-10-14T10:28:49.119Z,90.94
2022-10-14T10:34:34.535Z,91.43
2022-10-14T10:37:08.598Z,91.68
2022-10-14T10:40:10.781Z,91.37
2022-10-14T10:43:12.649Z,90.80
2022-10-14T10:45:58.011Z,91.16
2022-10-14T10:48:47.644Z,90.96
2022-10-14T10:51:23.577Z,90.90
2022-10-14T10:53:50.317Z,90.99
2022-10-14T10:56:28.670Z,91.00
2022-10-14T10:59:17.164Z,90.82
2022-10-14T11:01:56.909Z,91.23
2022-10-14T11:04:32.553Z,90.98
2022-10-14T11:07:45.441Z,91.04
2022-10-14T11:10:30.481Z,91.03
2022-10-14T11:13:04.549Z,91.16
2022-10-14T11:15:33.929Z,91.14
2022-10-14T11:18:07.904Z,91.02
2022-10-14T11:20:44.093Z,91.22
2022-10-14T11:23:34.887Z,91.20
2022-10-14T11:26:46.616Z,91.40
2022-10-14T11:29:50.823Z,92.17
2022-10-14T11:32:23.601Z,93.36
2022-10-14T11:35:10.607Z,94.22
2022-10-14T11:37:46.622Z,95.08
2022-10-14T11:41:01.464Z,95.74
2022-10-14T11:43:39.759Z,96.23
2022-10-14T11:46:17.147Z,96.37
2022-10-14T11:49:00.342Z,96.62
2022-10-14T11:51:48.673Z,96.47
2022-10-14T11:54:52.233Z,96.49
2022-10-14T11:57:42.314Z,96.62
2022-10-14T12:00:22.211Z,96.54
2022-10-14T12:03:25.987Z,96.50
2022-10-14T12:06:12.825Z,96.44
2022-10-14T12:09:02.644Z,96.18
2022-10-14T12:11:46.476Z,95.97
2022-10-14T12:14:30.687Z,95.94
2022-10-14T12:17:00.374Z,95.87
2022-10-14T12:19:28.919Z,95.85
2022-10-14T12:21:58.678Z,95.70
2022-10-14T12:24:31.463Z,95.72
2022-10-14T12:27:01.698Z,95.88
2022-10-14T12:29:32.858Z,95.87
2022-10-14T12:32:07.553Z,96.09
2022-10-14T12:34:42.421Z,95.84
2022-10-14T12:37:28.726Z,95.84
2022-10-14T12:40:04.034Z,96.00
2022-10-14T12:42:35.054Z,95.97
2022-10-14T12:45:14.580Z,95.68
2022-10-14T12:47:42.591Z,95.91
2022-10-14T12:50:15.055Z,96.01
2022-10-14T12:52:46.383Z,96.31
2022-10-14T12:55:22.284Z,96.40
2022-10-14T12:58:00.394Z,96.54
2022-10-14T13:00:26.938Z,96.60
2022-10-14T13:03:01.403Z,96.70
2022-10-14T13:05:40.406Z,96.86
2022-10-14T13:08:16.133Z,96.82
2022-10-14T13:10:59.059Z,97.09
2022-10-14T13:13:53.569Z,96.98
2022-10-14T13:16:26.123Z,97.01
2022-10-14T13:18:57.992Z,96.85
2022-10-14T13:21:36.755Z,96.72
2022-10-14T13:24:27.422Z,96.33
2022-10-14T13:26:54.058Z,96.51
2022-10-14T13:29:20.690Z,96.38
2022-10-14T13:32:11.193Z,96.37
2022-10-14T13:34:44.194Z,96.07
2022-10-14T13:37:32.166Z,95.76
2022-10-14T13:40:20.089Z,95.68
2022-10-14T13:42:52.181Z,95.59
2022-10-14T13:45:21.161Z,95.57
2022-10-14T13:47:49.028Z,95.45
2022-10-14T13:50:22.059Z,95.43
2022-10-14T13:52:57.065Z,95.32
2022-10-14T13:55:25.549Z,95.47
2022-10-14T13:58:13.429Z,95.61
2022-10-14T14:00:50.746Z,95.42
2022-10-14T14:03:31.668Z,95.37
2022-10-14T14:05:59.744Z,95.59
2022-10-14T14:08:40.300Z,95.48
2022-10-14T14:11:17.624Z,95.57
2022-10-14T14:14:00.374Z,95.68
2022-10-14T14:16:32.089Z,96.10
2022-10-14T14:19:14.101Z,96.22
2022-10-14T14:21:40.862Z,96.76
2022-10-14T14:24:17.033Z,96.90
2022-10-14T14:26:44.332Z,97.23
2022-10-14T14:29:19.713Z,97.46
2022-10-14T14:32:05.566Z,97.63
2022-10-14T14:34:35.864Z,97.68
2022-10-14T14:37:23.513Z,97.71
2022-10-14T14:40:02.986Z,97.68
2022-10-14T14:42:36.178Z,97.72
2022-10-14T14:45:12.890Z,97.74
2022-10-14T14:47:41.136Z,97.73
2022-10-14T14:50:29.473Z,97.68
2022-10-14T14:53:02.944Z,97.65
2022-10-14T14:56:00.571Z,97.48
2022-10-14T14:58:38.014Z,97.43
2022-10-14T15:01:06.793Z,97.42
2022-10-14T15:04:12.925Z,97.45
2022-10-14T15:06:36.005Z,97.31
2022-10-14T15:09:14.039Z,97.36
2022-10-14T15:11:58.051Z,97.36
2022-10-14T15:14:32.949Z,97.26
2022-10-14T15:17:00.189Z,97.29
2022-10-14T15:19:37.295Z,97.36
2022-10-14T15:22:16.882Z,97.29
2022-10-14T15:25:02.254Z,97.29
2022-10-14T15:27:44.339Z,97.30
2022-10-14T15:30:27.796Z,97.34
2022-10-14T15:32:57.736Z,97.35
2022-10-14T15:35:25.158Z,97.22
2022-10-14T15:37:52.146Z,97.25
2022-10-14T15:40:20.228Z,97.26
2022-10-14T15:42:48.034Z,97.25
2022-10-14T15:45:16.079Z,97.32
2022-10-14T15:47:43.104Z,97.47
2022-10-14T15:50:20.099Z,97.42
2022-10-14T15:52:46.916Z,97.51
2022-10-14T15:55:17.543Z,97.56
2022-10-14T15:57:44.112Z,97.63
2022-10-14T16:00:11.013Z,97.70
2022-10-14T16:02:37.823Z,97.70
2022-10-14T16:05:20.900Z,97.83
2022-10-14T16:07:48.548Z,97.91
2022-10-14T16:10:19.084Z,97.97
2022-10-14T16:12:46.155Z,97.99
2022-10-14T16:15:28.233Z,97.93
2022-10-14T16:17:55.075Z,97.88
2022-10-14T16:20:22.438Z,97.93
2022-10-14T16:22:49.200Z,97.84
2022-10-14T16:25:22.121Z,97.85
2022-10-14T16:27:48.811Z,97.86
2022-10-14T16:30:15.443Z,97.78
2022-10-14T16:32:42.649Z,97.94
2022-10-14T16:35:10.194Z,97.86
2022-10-14T16:37:38.293Z,97.83
2022-10-14T16:40:05.983Z,97.90
2022-10-14T16:42:32.702Z,97.94
2022-10-14T16:44:59.276Z,98.00
2022-10-14T16:47:26.856Z,98.11
2022-10-14T16:49:53.656Z,98.17
2022-10-14T16:52:21.551Z,98.27
2022-10-14T16:54:48.404Z,98.30
2022-10-14T16:57:15.269Z,98.32
2022-10-14T16:59:42.076Z,98.38
2022-10-14T17:02:14.244Z,98.40
2022-10-14T17:04:42.202Z,98.57
2022-10-14T17:07:10.043Z,98.66
2022-10-14T17:09:36.835Z,98.70
2022-10-14T17:12:07.963Z,98.83
2022-10-14T17:14:37.892Z,98.79
2022-10-14T17:17:05.108Z,98.88
2022-10-14T17:19:31.758Z,98.86
2022-10-14T17:21:59.712Z,98.91
2022-10-14T17:24:26.429Z,98.96
2022-10-14T17:26:53.253Z,99.01
2022-10-14T17:29:20.630Z,99.08
2022-10-14T17:31:47.423Z,99.16
2022-10-14T17:34:14.323Z,99.13
2022-10-14T17:36:41.849Z,99.16
2022-10-14T17:39:16.467Z,99.17
2022-10-14T17:41:48.225Z,99.16
2022-10-14T17:44:14.926Z,99.19
2022-10-14T17:46:41.466Z,99.26
2022-10-14T17:49:11.710Z,99.28
2022-10-14T17:51:39.281Z,99.34
2022-10-14T17:58:41.519Z,99.42
2022-10-14T18:01:16.153Z,99.42
2022-10-14T18:03:44.751Z,99.47
2022-10-14T18:06:24.002Z,99.54
2022-10-14T18:08:56.387Z,99.44
2022-10-14T18:11:24.151Z,99.30
2022-10-14T18:13:56.684Z,99.35
2022-10-14T18:16:33.460Z,99.42
2022-10-14T18:19:05.938Z,99.42
2022-10-14T18:21:35.429Z,99.32
2022-10-14T18:24:03.055Z,98.98
2022-10-14T18:26:29.695Z,99.03
2022-10-14T18:28:58.738Z,99.09
2022-10-14T18:31:28.025Z,99.11
2022-10-14T18:33:56.872Z,99.15
2022-10-14T18:36:26.472Z,99.21
2022-10-14T18:38:58.947Z,99.21
2022-10-14T18:41:28.035Z,99.32
2022-10-14T18:43:57.301Z,99.31
2022-10-14T18:46:29.398Z,99.27
2022-10-14T18:48:57.986Z,99.27
2022-10-14T18:51:30.110Z,99.25
2022-10-14T18:53:59.274Z,99.26
2022-10-14T18:56:28.655Z,99.27
2022-10-14T19:01:30.475Z,99.22
2022-10-14T19:03:57.530Z,99.23
2022-10-14T19:06:24.292Z,99.21
2022-10-14T19:08:52.123Z,99.06
2022-10-14T19:11:20.374Z,98.98
2022-10-14T19:13:48.830Z,98.96
2022-10-14T19:16:21.912Z,98.93
2022-10-14T19:18:53.212Z,98.99
2022-10-14T19:21:22.344Z,98.96
2022-10-14T19:23:50.004Z,98.98
2022-10-14T19:26:22.264Z,98.93
2022-10-14T19:28:53.408Z,99.10
2022-10-14T19:31:22.886Z,98.99
2022-10-14T19:33:49.578Z,98.96
2022-10-14T19:36:18.217Z,99.01
2022-10-14T19:38:52.326Z,98.88
2022-10-14T19:41:19.010Z,98.85
2022-10-14T19:43:45.600Z,98.79
2022-10-14T19:46:14.194Z,98.78
2022-10-14T19:48:41.185Z,98.80
2022-10-14T19:51:11.712Z,98.77
2022-10-14T19:53:39.485Z,98.78
2022-10-14T19:56:08.626Z,98.78
2022-10-14T19:58:38.608Z,98.79
2022-10-14T20:01:07.664Z,98.73
2022-10-14T20:03:34.717Z,98.66
2022-10-14T20:06:02.134Z,98.52
2022-10-14T20:08:29.152Z,98.60
2022-10-14T20:10:56.183Z,98.67
2022-10-14T20:13:22.999Z,98.76
2022-10-14T20:15:54.732Z,98.81
2022-10-14T20:18:21.739Z,98.90
2022-10-14T20:20:49.494Z,99.03
2022-10-14T20:23:19.866Z,99.04
2022-10-14T20:25:47.441Z,99.13
2022-10-14T20:28:14.458Z,99.18
2022-10-14T20:30:42.705Z,99.09
2022-10-14T20:33:10.000Z,99.14
2022-10-14T20:35:36.957Z,99.16
2022-10-14T20:38:07.113Z,99.25
2022-10-14T20:40:40.672Z,99.20
2022-10-14T20:43:07.751Z,99.03
2022-10-14T20:45:34.655Z,99.04
2022-10-14T20:48:01.653Z,98.98
2022-10-14T20:50:28.299Z,99.11
2022-10-14T20:52:54.847Z,99.05
2022-10-14T20:55:21.606Z,99.01
2022-10-14T20:57:48.234Z,99.00
2022-10-14T21:00:15.163Z,99.10
2022-10-14T21:02:44.796Z,99.04
2022-10-14T21:05:11.420Z,99.02
2022-10-14T21:07:38.061Z,99.09
2022-10-14T21:10:04.867Z,99.11
2022-10-14T21:12:31.434Z,99.06
2022-10-14T21:14:58.026Z,99.03
2022-10-14T21:17:24.695Z,98.97
2022-10-14T21:19:51.386Z,98.96
2022-10-14T21:22:17.977Z,98.94
2022-10-14T21:24:44.574Z,98.89
2022-10-14T21:27:11.259Z,98.82
2022-10-14T21:29:38.042Z,98.89
2022-10-14T21:32:05.102Z,98.88
2022-10-14T21:34:31.761Z,98.93
2022-10-14T21:36:58.857Z,98.98
2022-10-14T21:39:25.517Z,99.04
2022-10-14T21:41:52.484Z,99.06
2022-10-14T21:44:20.946Z,99.04
2022-10-14T21:46:48.748Z,99.08
2022-10-14T21:49:15.460Z,99.07
2022-10-14T21:51:42.342Z,99.14
2022-10-14T21:54:12.419Z,99.12
2022-10-14T21:56:39.546Z,99.12
2022-10-14T21:59:06.883Z,99.07
2022-10-14T22:01:33.545Z,99.09
2022-10-14T22:04:05.052Z,98.96
2022-10-14T22:06:35.836Z,98.87
2022-10-14T22:09:05.434Z,98.73
2022-10-14T22:11:35.443Z,98.71
2022-10-14T22:14:04.425Z,98.59
2022-10-14T22:16:31.670Z,98.54
2022-10-14T22:19:00.727Z,98.49
2022-10-14T22:21:28.760Z,98.39
2022-10-14T22:23:55.483Z,98.35
2022-10-14T22:26:24.980Z,98.23
2022-10-14T22:29:04.469Z,98.18
2022-10-14T22:31:35.784Z,98.02
2022-10-14T22:34:04.900Z,97.96
2022-10-14T22:36:33.002Z,97.74
2022-10-14T22:39:01.256Z,97.71
2022-10-14T22:41:33.904Z,97.70
2022-10-14T22:44:03.227Z,97.85
2022-10-14T22:46:31.108Z,97.93
2022-10-14T22:48:58.705Z,97.97
2022-10-14T22:54:14.266Z,98.17
2022-10-14T22:56:40.994Z,98.28
2022-10-14T22:59:11.504Z,98.37
2022-10-14T23:01:40.334Z,98.44
2022-10-14T23:04:07.077Z,98.42
2022-10-14T23:06:36.895Z,98.22
2022-10-14T23:09:04.768Z,98.05
2022-10-14T23:11:31.923Z,97.79
2022-10-14T23:14:00.314Z,97.62
2022-10-14T23:16:30.066Z,97.48
2022-10-14T23:18:58.687Z,97.49
2022-10-14T23:21:28.797Z,97.86
2022-10-14T23:24:01.568Z,97.97
2022-10-14T23:26:36.200Z,97.99
2022-10-14T23:29:07.689Z,97.92
2022-10-14T23:31:36.092Z,97.79
2022-10-14T23:34:07.635Z,97.73
2022-10-14T23:36:51.894Z,97.68
2022-10-14T23:39:21.805Z,97.59
2022-10-14T23:41:53.610Z,97.66
2022-10-14T23:44:20.633Z,97.79
2022-10-14T23:47:00.048Z,97.93
2022-10-14T23:49:26.792Z,98.20
2022-10-14T23:51:54.282Z,98.23
2022-10-14T23:54:24.583Z,98.19
2022-10-14T23:56:52.879Z,98.08
